createdAt,value
2023-05-19T00:03:40.829Z,10.37
2023-05-19T00:08:43.195Z,10.25
2023-05-19T00:13:49.901Z,11.25
2023-05-19T00:18:53.362Z,11.27
2023-05-19T00:23:56.196Z,11.32
2023-05-19T00:28:58.478Z,12.87
2023-05-19T00:34:00.797Z,10.65
2023-05-19T00:39:03.805Z,10.90
2023-05-19T00:44:07.215Z,9.88
2023-05-19T00:49:09.417Z,10.68
2023-05-19T00:54:11.680Z,12.73
2023-05-19T00:59:14.106Z,10.05
2023-05-19T01:04:20.237Z,12.45
2023-05-19T01:09:23.067Z,13.05
2023-05-19T01:14:25.346Z,12.37
2023-05-19T01:19:37.122Z,12.70
2023-05-19T01:24:55.081Z,11.95
2023-05-19T01:30:25.553Z,14.00
2023-05-19T01:35:29.244Z,12.32
2023-05-19T01:40:33.493Z,12.70
2023-05-19T01:45:36.930Z,11.43
2023-05-19T01:50:40.327Z,14.65
2023-05-19T01:55:49.719Z,12.50
2023-05-19T02:00:54.958Z,12.70
2023-05-19T02:06:26.118Z,12.00
2023-05-19T02:11:42.141Z,13.03
2023-05-19T02:16:48.057Z,14.05
2023-05-19T02:21:50.586Z,15.95
2023-05-19T02:26:53.817Z,12.13
2023-05-19T02:31:56.017Z,13.55
2023-05-19T02:36:58.269Z,14.13
2023-05-19T02:42:00.519Z,14.38
2023-05-19T02:47:02.693Z,14.23
2023-05-19T02:52:05.783Z,13.55
2023-05-19T02:57:08.082Z,14.40
2023-05-19T03:02:10.258Z,15.97
2023-05-19T03:07:15.690Z,14.93
2023-05-19T03:12:17.997Z,14.00
2023-05-19T03:17:20.564Z,15.93
2023-05-19T03:22:22.883Z,15.05
2023-05-19T03:27:25.108Z,16.20
2023-05-19T03:32:27.424Z,15.45
2023-05-19T03:37:29.740Z,15.45
2023-05-19T03:42:32.009Z,14.80
2023-05-19T03:47:34.247Z,15.20
2023-05-19T03:52:36.483Z,14.13
2023-05-19T03:57:38.703Z,15.43
2023-05-19T04:02:41.245Z,16.95
2023-05-19T04:07:43.644Z,14.13
2023-05-19T04:12:46.394Z,13.02
2023-05-19T04:17:49.178Z,12.97
2023-05-19T04:22:51.386Z,15.23
2023-05-19T04:27:53.921Z,15.65
2023-05-19T04:32:58.171Z,13.70
2023-05-19T04:38:01.728Z,15.45
2023-05-19T04:43:03.985Z,15.73
2023-05-19T04:48:06.669Z,17.55
2023-05-19T04:53:09.741Z,14.52
2023-05-19T04:58:11.961Z,15.25
2023-05-19T05:03:15.265Z,15.55
2023-05-19T05:08:23.113Z,21.30
2023-05-19T05:13:25.725Z,16.02
2023-05-19T05:18:28.520Z,17.25
2023-05-19T05:23:31.087Z,16.33
2023-05-19T05:28:33.362Z,15.77
2023-05-19T05:33:35.787Z,19.30
2023-05-19T05:38:38.056Z,16.80
2023-05-19T05:43:40.315Z,16.95
2023-05-19T05:48:42.934Z,16.60
2023-05-19T05:53:51.458Z,15.23
2023-05-19T05:58:53.891Z,14.87
2023-05-19T06:03:56.153Z,16.87
2023-05-19T06:08:58.453Z,17.67
2023-05-19T06:14:00.722Z,16.17
2023-05-19T06:19:03.468Z,16.73
2023-05-19T06:24:05.974Z,15.57
2023-05-19T06:29:08.126Z,16.70
2023-05-19T06:34:16.371Z,15.27
2023-05-19T06:39:18.660Z,14.85
2023-05-19T06:44:21.283Z,14.48
2023-05-19T06:49:24.100Z,12.90
2023-05-19T06:54:26.277Z,14.45
2023-05-19T06:59:28.473Z,15.80
2023-05-19T07:04:30.670Z,15.98
2023-05-19T07:09:32.838Z,12.55
2023-05-19T07:14:36.569Z,13.83
2023-05-19T07:19:39.216Z,12.63
2023-05-19T07:24:41.461Z,13.10
2023-05-19T07:29:43.606Z,12.73
2023-05-19T07:34:45.861Z,12.75
2023-05-19T07:39:48.037Z,12.90
2023-05-19T07:44:50.176Z,12.43
2023-05-19T07:49:52.311Z,15.63
2023-05-19T07:54:54.555Z,11.60
2023-05-19T07:59:56.839Z,11.18
2023-05-19T08:04:59.141Z,9.23
2023-05-19T08:10:01.433Z,12.40
2023-05-19T08:15:03.976Z,11.95
2023-05-19T08:20:08.989Z,10.60
2023-05-19T08:25:11.713Z,9.38
2023-05-19T08:30:14.193Z,9.37
2023-05-19T08:35:16.563Z,9.25
2023-05-19T08:40:19.005Z,12.52
2023-05-19T08:45:21.252Z,12.30
2023-05-19T08:50:34.616Z,8.02
2023-05-19T08:55:41.240Z,9.70
2023-05-19T09:00:44.395Z,8.55
2023-05-19T09:05:47.211Z,11.25
2023-05-19T09:10:49.522Z,9.73
2023-05-19T09:15:53.457Z,10.02
2023-05-19T09:21:00.638Z,9.73
2023-05-19T09:26:04.656Z,9.15
2023-05-19T09:31:09.275Z,9.20
2023-05-19T09:36:11.746Z,10.47
2023-05-19T09:41:15.140Z,9.65
2023-05-19T09:46:17.777Z,10.50
2023-05-19T09:51:21.467Z,10.45
2023-05-19T09:56:25.492Z,9.05
2023-05-19T10:01:27.972Z,9.33
2023-05-19T10:06:30.939Z,12.20
2023-05-19T10:11:33.577Z,11.57
2023-05-19T10:16:36.485Z,12.13
2023-05-19T10:21:39.161Z,10.90
2023-05-19T10:26:45.388Z,11.07
2023-05-19T10:31:50.652Z,11.07
2023-05-19T10:37:01.860Z,12.23
2023-05-19T10:42:24.619Z,8.55
2023-05-19T10:47:27.412Z,9.98
2023-05-19T10:52:31.059Z,10.98
2023-05-19T10:57:34.001Z,9.65
2023-05-19T11:02:43.335Z,11.07
2023-05-19T11:07:56.745Z,10.10
2023-05-19T11:12:59.014Z,9.90
2023-05-19T11:18:02.782Z,11.70
2023-05-19T11:23:10.028Z,10.85
2023-05-19T11:28:13.686Z,11.37
2023-05-19T11:33:19.594Z,11.27
2023-05-19T11:38:23.729Z,13.30
2023-05-19T11:43:26.361Z,11.63
2023-05-19T11:48:30.125Z,10.50
2023-05-19T11:53:36.329Z,10.17
2023-05-19T11:58:38.545Z,10.52
2023-05-19T12:03:41.029Z,10.40
2023-05-19T12:08:43.503Z,11.73
2023-05-19T12:13:47.029Z,11.55
2023-05-19T12:18:49.385Z,11.93
2023-05-19T12:23:51.828Z,10.98
2023-05-19T12:28:54.901Z,10.52
2023-05-19T12:33:57.243Z,11.05
2023-05-19T12:38:59.636Z,10.10
2023-05-19T12:44:01.859Z,12.57
2023-05-19T12:49:04.434Z,11.20
2023-05-19T12:54:06.808Z,11.43
2023-05-19T12:59:09.139Z,11.35
2023-05-19T13:04:11.488Z,11.35
2023-05-19T13:09:16.371Z,12.83
2023-05-19T13:14:19.223Z,13.55
2023-05-19T13:19:25.476Z,13.62
2023-05-19T13:24:28.893Z,16.35
2023-05-19T13:29:31.158Z,14.15
2023-05-19T13:34:33.363Z,13.77
2023-05-19T13:39:36.282Z,11.88
2023-05-19T13:44:38.539Z,12.13
2023-05-19T13:49:41.683Z,11.10
2023-05-19T13:54:47.578Z,11.73
2023-05-19T14:00:01.531Z,10.57
2023-05-19T14:05:05.246Z,10.10
2023-05-19T14:10:07.965Z,9.45
2023-05-19T14:15:11.534Z,10.52
2023-05-19T14:20:13.961Z,9.82
2023-05-19T14:25:16.363Z,9.60
2023-05-19T14:30:18.567Z,10.35
2023-05-19T14:35:20.885Z,11.25
2023-05-19T14:40:23.326Z,9.88
2023-05-19T14:45:25.562Z,9.20
2023-05-19T14:50:29.316Z,8.87
2023-05-19T14:55:32.022Z,10.93
2023-05-19T15:00:34.581Z,10.00
2023-05-19T15:05:37.630Z,10.88
2023-05-19T15:10:39.811Z,10.98
2023-05-19T15:15:42.100Z,10.47
2023-05-19T15:20:46.553Z,10.77
2023-05-19T15:25:49.504Z,10.30
2023-05-19T15:30:51.997Z,10.45
2023-05-19T15:35:54.436Z,21.27
2023-05-19T15:40:56.764Z,11.37
2023-05-19T15:45:59.017Z,9.32
2023-05-19T15:51:01.415Z,10.48
2023-05-19T15:56:04.827Z,9.15
2023-05-19T16:01:07.966Z,8.52
2023-05-19T16:06:10.232Z,9.80
2023-05-19T16:11:12.582Z,8.13
2023-05-19T16:16:14.953Z,11.63
2023-05-19T16:21:17.226Z,8.43
2023-05-19T16:26:19.661Z,9.65
2023-05-19T16:31:21.913Z,9.47
2023-05-19T16:36:24.222Z,9.15
2023-05-19T16:41:26.734Z,10.50
2023-05-19T16:46:30.574Z,15.60
2023-05-19T16:51:33.637Z,8.05
2023-05-19T16:56:36.139Z,8.03
2023-05-19T17:01:38.775Z,9.55
2023-05-19T17:06:41.124Z,9.75
2023-05-19T17:11:43.624Z,10.63
2023-05-19T17:16:45.967Z,8.85
2023-05-19T17:21:48.608Z,11.10
2023-05-19T17:26:51.126Z,9.55
2023-05-19T17:31:54.370Z,10.13
2023-05-19T17:36:56.549Z,10.05
2023-05-19T17:41:58.857Z,9.93
2023-05-19T17:47:02.420Z,11.77
2023-05-19T17:52:05.092Z,8.68
2023-05-19T17:57:12.640Z,8.98
2023-05-19T18:02:15.788Z,10.93
2023-05-19T18:07:19.520Z,10.70
2023-05-19T18:12:22.866Z,12.90
2023-05-19T18:17:25.186Z,12.70
2023-05-19T18:22:27.549Z,10.63
2023-05-19T18:27:31.941Z,10.95
2023-05-19T18:32:34.381Z,12.40
2023-05-19T18:37:36.828Z,13.37
2023-05-19T18:42:39.019Z,13.57
2023-05-19T18:47:41.460Z,13.50
2023-05-19T18:52:43.788Z,14.15
2023-05-19T18:57:46.436Z,12.20
2023-05-19T19:02:49.643Z,13.77
2023-05-19T19:07:52.498Z,14.02
2023-05-19T19:12:54.845Z,13.60
2023-05-19T19:17:57.102Z,12.15
2023-05-19T19:22:59.557Z,13.43
2023-05-19T19:28:02.583Z,11.93
2023-05-19T19:33:06.542Z,15.57
2023-05-19T19:38:09.119Z,13.95
2023-05-19T19:43:11.505Z,12.40
2023-05-19T19:48:14.116Z,12.65
2023-05-19T19:53:16.368Z,13.33
2023-05-19T19:58:18.818Z,17.10
2023-05-19T20:03:21.270Z,14.45
2023-05-19T20:08:24.506Z,15.52
2023-05-19T20:13:27.335Z,13.27
2023-05-19T20:18:30.303Z,14.60
2023-05-19T20:23:33.090Z,14.20
2023-05-19T20:28:36.193Z,13.82
2023-05-19T20:33:38.501Z,15.82
2023-05-19T20:38:40.713Z,14.02
2023-05-19T20:43:43.709Z,14.13
2023-05-19T20:48:46.320Z,13.30
2023-05-19T20:53:48.521Z,13.88
2023-05-19T20:58:50.674Z,13.55
2023-05-19T21:03:52.900Z,13.23
2023-05-19T21:08:55.104Z,16.77
2023-05-19T21:13:57.346Z,12.43
2023-05-19T21:19:01.063Z,13.48
2023-05-19T21:24:03.421Z,13.02
2023-05-19T21:29:06.294Z,16.83
2023-05-19T21:34:08.453Z,16.07
2023-05-19T21:39:13.575Z,15.60
2023-05-19T21:44:15.964Z,15.02
2023-05-19T21:49:18.134Z,14.75
2023-05-19T21:54:20.903Z,13.98
2023-05-19T21:59:24.822Z,12.57
2023-05-19T22:04:27.147Z,14.57
2023-05-19T22:09:29.535Z,14.73
2023-05-19T22:14:31.790Z,14.65
2023-05-19T22:19:33.932Z,13.75
2023-05-19T22:24:36.103Z,13.27
2023-05-19T22:29:41.479Z,13.68
2023-05-19T22:34:44.702Z,15.35
2023-05-19T22:39:46.976Z,13.90
2023-05-19T22:44:49.204Z,14.55
2023-05-19T22:49:51.658Z,13.97
2023-05-19T22:54:53.916Z,14.18
2023-05-19T22:59:56.109Z,13.60
2023-05-19T23:04:58.301Z,14.10
2023-05-19T23:10:00.571Z,16.00
2023-05-19T23:15:03.669Z,14.23
2023-05-19T23:20:06.563Z,17.33
2023-05-19T23:25:11.757Z,16.12
2023-05-19T23:30:14.495Z,15.18
2023-05-19T23:35:17.699Z,16.62
2023-05-19T23:40:44.301Z,15.73
2023-05-19T23:45:46.488Z,15.13
2023-05-19T23:50:48.767Z,15.02
2023-05-19T23:55:51.640Z,14.77
